A- A+ FrançaisEnglishEspañol中国

le plus proche LFBT Tarbes-Lourdes-PyrénéesLFTH Hyeres-Le-Palyvestre LFBZ Biarritz-Bayonne-Anglet LFBD Bordeaux-Merignac

manche à air

La météo aéronautique pour les pilotes, la préparation du vol avec les METAR (METeorological Aerodrome Report, message d'observation des conditions météorologiques pour l'aviation) et Les TAF (Terminal Aerodrome Forecast : message de prévision à court terme des conditions météorologiques pour l'aviation). Et les autres ressources comme les VAC (Visual Approch Chart) et les NOTAM (Notice To Airman) pour préprer les vols.

Aéroport Gloucestershire (Royaume-Uni) / OACI EGBJ/ IATA GLO

L'altitude de l'aéroport Gloucestershire est de 31 m=102 ft. Il est situé à proximité de Staverton (Royaume-Uni). La météo générale à 5 jours est disponible pour Staverton situé à 2.1 km.

METAR de l'aéroport Gloucestershire - EGBJ

EGBJ 191520Z 14005KT 9999 FEW040 08/05 Q1013

Décodage du METAR de l'aéroport Gloucestershire (GB)

METAR émis par EGBJ le mardi 19 novembre 2019 à 15:20 heure TU. Attention ce METAR est obsolète car il a été émis il y a 9 heure et 41 minutes.

La visibilité est de supérieure à 10 km=supérieure à 6.2 sm.

La température est de 8°C=46 °F et le point rosée est de 5°C=41 °F . Ce qui correspond à 81% d'humidité relative.

Le QNH est de 1013 hPa=29.91 inHg

Vent de 5 kt=9 km/h, orienté à 140°.

Nuages : Quelques nuages à 4000 ft=1220 mètres.

TAF de l'aéroport Gloucestershire - EGBJ

EGBJ 191404Z 1915/1920 18008KT 9999 SCT025

EGBJ 191404Z 1915/1920 18008KT 9999 nuages épars à 025

Aéroport à proximité de Gloucestershire

Météo générale à 5 jours à Staverton (2.1 km)EG34 Aéroport Ledbury (24 km)EGBP Aéroport Kemble (26 km)EGTW Aéroport Oaksey Park (31 km)EGVA Aéroport Fairford (35 km)EGBL Aéroport Long Marston (39 km)EG03 Aéroport Badminton (40 km)

Vue aérienne de l'aéroport Gloucestershire

NOTAM de l'aéroport Gloucestershire

Les NOTAM sont fournis sans aucune garantie de leur actualité. Le pilote est le seul responsable de la vérification de sa validité avant de l'utiliser opérationnellement pour préparer un vol ou l'utiliser lors de sa navigation.

Pas de NOTAM

Sources des données